createdAt,value
2022-09-26T00:01:55.546Z,21.60
2022-09-26T00:04:31.780Z,22.30
2022-09-26T00:07:01.341Z,19.70
2022-09-26T00:09:30.052Z,23.40
2022-09-26T00:11:59.071Z,26.30
2022-09-26T00:14:29.156Z,19.90
2022-09-26T00:16:57.676Z,21.50
2022-09-26T00:19:26.187Z,21.10
2022-09-26T00:21:54.752Z,20.10
2022-09-26T00:24:23.267Z,19.20
2022-09-26T00:26:51.860Z,18.50
2022-09-26T00:29:20.320Z,21.80
2022-09-26T00:31:48.962Z,23.70
2022-09-26T00:34:19.615Z,21.60
2022-09-26T00:36:50.065Z,21.10
2022-09-26T00:39:18.672Z,21.50
2022-09-26T00:41:47.173Z,20.20
2022-09-26T00:44:36.888Z,20.60
2022-09-26T00:47:17.077Z,22.70
2022-09-26T00:49:47.358Z,35.50
2022-09-26T00:52:22.475Z,36.90
2022-09-26T00:54:55.786Z,25.60
2022-09-26T00:57:28.478Z,23.10
2022-09-26T01:00:01.231Z,18.30
2022-09-26T01:02:30.042Z,20.10
2022-09-26T01:04:59.905Z,17.90
2022-09-26T01:07:29.476Z,18.90
2022-09-26T01:09:58.870Z,18.70
2022-09-26T01:12:27.880Z,20.30
2022-09-26T01:14:57.925Z,18.40
2022-09-26T01:17:27.311Z,18.80
2022-09-26T01:20:17.020Z,20.20
2022-09-26T01:23:07.844Z,17.00
2022-09-26T01:26:05.731Z,16.80
2022-09-26T01:28:53.803Z,20.30
2022-09-26T01:31:28.503Z,21.60
2022-09-26T01:34:04.392Z,21.90
2022-09-26T01:36:48.144Z,21.50
2022-09-26T01:39:30.741Z,22.10
2022-09-26T01:42:14.246Z,21.80
2022-09-26T01:44:48.797Z,21.10
2022-09-26T01:47:22.792Z,22.80
2022-09-26T01:49:58.079Z,24.10
2022-09-26T01:52:32.887Z,24.70
2022-09-26T01:55:07.931Z,20.50
2022-09-26T01:57:40.902Z,19.40
2022-09-26T02:00:12.210Z,21.40
2022-09-26T02:02:45.481Z,19.80
2022-09-26T02:05:20.340Z,17.10
2022-09-26T02:07:55.177Z,18.70
2022-09-26T02:10:28.791Z,19.90
2022-09-26T02:13:03.146Z,17.00
2022-09-26T02:15:36.289Z,20.20
2022-09-26T02:18:12.412Z,19.20
2022-09-26T02:20:47.850Z,19.90
2022-09-26T02:23:16.563Z,24.40
2022-09-26T02:25:45.075Z,19.70
2022-09-26T02:28:14.000Z,20.20
2022-09-26T02:30:46.402Z,21.40
2022-09-26T02:33:15.914Z,26.40
2022-09-26T02:35:56.968Z,24.30
2022-09-26T02:38:30.977Z,20.40
2022-09-26T02:41:21.968Z,25.20
2022-09-26T02:44:05.365Z,21.50
2022-09-26T02:46:53.445Z,22.30
2022-09-26T02:49:44.721Z,20.90
2022-09-26T02:52:21.190Z,20.90
2022-09-26T02:55:03.930Z,19.40
2022-09-26T02:57:44.299Z,20.50
2022-09-26T03:00:18.080Z,20.40
2022-09-26T03:02:55.161Z,20.60
2022-09-26T03:05:27.339Z,19.00
2022-09-26T03:08:00.781Z,20.70
2022-09-26T03:10:32.071Z,22.10
2022-09-26T03:13:06.412Z,21.80
2022-09-26T03:15:37.204Z,24.30
2022-09-26T03:18:09.884Z,22.00
2022-09-26T03:20:38.487Z,21.80
2022-09-26T03:23:07.188Z,20.40
2022-09-26T03:25:36.244Z,22.40
2022-09-26T03:28:07.106Z,24.10
2022-09-26T03:30:35.648Z,24.80
2022-09-26T03:33:23.307Z,17.30
2022-09-26T03:35:52.331Z,17.00
2022-09-26T03:38:22.109Z,19.30
2022-09-26T03:40:58.306Z,19.80
2022-09-26T03:43:45.507Z,20.40
2022-09-26T03:46:15.134Z,20.30
2022-09-26T03:48:43.732Z,21.10
2022-09-26T03:51:13.739Z,22.50
2022-09-26T03:53:44.860Z,22.00
2022-09-26T03:56:17.686Z,17.80
2022-09-26T03:58:48.398Z,20.80
2022-09-26T04:01:19.984Z,18.70
2022-09-26T04:03:51.097Z,14.70
2022-09-26T04:06:21.739Z,16.90
2022-09-26T04:08:52.242Z,17.90
2022-09-26T04:11:24.090Z,12.90
2022-09-26T04:16:24.543Z,16.00
2022-09-26T04:19:01.366Z,18.30
2022-09-26T04:21:30.513Z,17.40
2022-09-26T04:24:00.639Z,15.70
2022-09-26T04:26:29.238Z,15.90
2022-09-26T04:28:58.445Z,17.60
2022-09-26T04:31:42.001Z,11.60
2022-09-26T04:34:14.301Z,17.00
2022-09-26T04:36:43.116Z,15.90
2022-09-26T04:39:12.832Z,15.20
2022-09-26T04:41:41.758Z,19.60
2022-09-26T04:44:12.124Z,20.30
2022-09-26T04:46:40.740Z,18.00
2022-09-26T04:49:10.548Z,17.20
2022-09-26T04:51:39.123Z,22.70
2022-09-26T04:54:07.974Z,20.70
2022-09-26T04:56:40.046Z,23.60
2022-09-26T04:59:09.283Z,18.30
2022-09-26T05:01:45.751Z,23.70
2022-09-26T05:04:26.652Z,16.70
2022-09-26T05:06:58.589Z,16.60
2022-09-26T05:09:34.282Z,16.70
2022-09-26T05:12:17.581Z,15.20
2022-09-26T05:14:47.423Z,16.20
2022-09-26T05:17:16.003Z,17.90
2022-09-26T05:19:45.631Z,15.30
2022-09-26T05:22:40.200Z,18.10
2022-09-26T05:25:28.505Z,21.90
2022-09-26T05:27:57.037Z,17.40
2022-09-26T05:30:30.580Z,17.80
2022-09-26T05:32:59.194Z,18.80
2022-09-26T05:35:27.713Z,21.60
2022-09-26T05:38:00.070Z,20.20
2022-09-26T05:41:02.006Z,24.20
2022-09-26T05:43:32.989Z,21.80
2022-09-26T05:46:03.904Z,26.40
2022-09-26T05:48:37.570Z,25.70
2022-09-26T05:51:11.856Z,27.90
2022-09-26T05:53:43.660Z,27.70
2022-09-26T05:59:05.205Z,30.60
2022-09-26T06:01:36.590Z,24.60
2022-09-26T06:04:10.138Z,28.50
2022-09-26T06:06:48.134Z,20.70
2022-09-26T06:09:18.380Z,28.60
2022-09-26T06:12:05.532Z,22.40
2022-09-26T06:14:34.138Z,22.70
2022-09-26T06:17:02.656Z,26.80
2022-09-26T06:19:31.716Z,25.10
2022-09-26T06:22:00.278Z,30.00
2022-09-26T06:24:30.735Z,33.40
2022-09-26T06:27:01.624Z,32.70
2022-09-26T06:29:32.261Z,36.80
2022-09-26T06:32:01.431Z,31.80
2022-09-26T06:34:51.151Z,32.30
2022-09-26T06:37:44.423Z,29.40
2022-09-26T06:40:13.447Z,30.50
2022-09-26T06:42:46.143Z,30.10
2022-09-26T06:45:35.639Z,30.70
2022-09-26T06:48:18.952Z,26.20
2022-09-26T06:51:14.662Z,34.40
2022-09-26T06:53:45.336Z,30.20
2022-09-26T06:56:17.608Z,33.20
2022-09-26T06:58:46.266Z,30.00
2022-09-26T07:01:17.943Z,31.80
2022-09-26T07:04:03.969Z,32.20
2022-09-26T07:06:51.257Z,33.30
2022-09-26T07:09:20.171Z,29.70
2022-09-26T07:12:15.575Z,28.50
2022-09-26T07:14:45.753Z,30.40
2022-09-26T07:17:21.408Z,24.80
2022-09-26T07:20:10.537Z,25.90
2022-09-26T07:23:01.383Z,24.40
2022-09-26T07:25:31.024Z,27.40
2022-09-26T07:28:00.915Z,24.50
2022-09-26T07:30:38.408Z,23.10
2022-09-26T07:33:36.424Z,19.50
2022-09-26T07:36:10.203Z,14.80
2022-09-26T07:38:39.042Z,12.10
2022-09-26T07:41:10.201Z,9.60
2022-09-26T07:46:45.111Z,7.40
2022-09-26T07:49:31.864Z,9.60
2022-09-26T07:52:32.962Z,8.40
2022-09-26T07:55:21.753Z,11.70
2022-09-26T07:58:06.583Z,9.90
2022-09-26T08:00:46.231Z,7.10
2022-09-26T08:03:28.028Z,7.40
2022-09-26T08:06:00.439Z,6.10
2022-09-26T08:08:30.249Z,7.20
2022-09-26T08:13:46.059Z,6.70
2022-09-26T08:16:41.246Z,6.90
2022-09-26T08:19:12.967Z,6.50
2022-09-26T08:24:09.724Z,9.00
2022-09-26T08:26:56.430Z,11.40
2022-09-26T08:29:31.482Z,7.50
2022-09-26T08:34:34.949Z,6.70
2022-09-26T08:37:27.611Z,7.70
2022-09-26T08:43:36.845Z,7.60
2022-09-26T08:46:46.151Z,9.40
2022-09-26T08:50:03.192Z,11.00
2022-09-26T08:52:37.165Z,10.80
2022-09-26T08:55:13.309Z,9.50
2022-09-26T08:57:44.995Z,8.90
2022-09-26T09:03:07.829Z,7.90
2022-09-26T09:05:40.493Z,8.70
2022-09-26T09:08:14.622Z,17.10
2022-09-26T09:11:03.110Z,11.90
2022-09-26T09:13:46.584Z,11.80
2022-09-26T09:16:44.894Z,9.60
2022-09-26T09:19:41.342Z,8.20
2022-09-26T09:22:38.248Z,8.40
2022-09-26T09:25:16.463Z,12.60
2022-09-26T09:28:08.433Z,9.70
2022-09-26T09:30:43.649Z,9.00
2022-09-26T09:33:16.991Z,9.30
2022-09-26T09:36:08.708Z,7.50
2022-09-26T09:38:47.977Z,8.40
2022-09-26T09:41:35.225Z,8.10
2022-09-26T09:44:14.955Z,8.20
2022-09-26T09:46:43.904Z,9.60
2022-09-26T09:49:19.716Z,11.50
2022-09-26T09:52:10.375Z,9.90
2022-09-26T09:54:55.268Z,9.30
2022-09-26T09:57:54.342Z,8.10
2022-09-26T10:00:24.596Z,8.50
2022-09-26T10:03:04.662Z,6.70
2022-09-26T10:05:41.043Z,7.30
2022-09-26T10:08:13.798Z,6.60
2022-09-26T10:11:12.211Z,10.10
2022-09-26T10:14:02.690Z,8.20
2022-09-26T10:17:19.871Z,7.90
2022-09-26T10:20:27.283Z,7.00
2022-09-26T10:22:56.213Z,6.70
2022-09-26T10:25:26.753Z,8.60
2022-09-26T10:27:58.642Z,7.80
2022-09-26T10:30:33.518Z,7.30
2022-09-26T10:33:05.601Z,7.70
2022-09-26T10:35:46.808Z,7.00
2022-09-26T10:38:21.547Z,5.90
2022-09-26T10:40:59.004Z,6.40
2022-09-26T10:43:30.240Z,5.90
2022-09-26T10:46:09.104Z,6.30
2022-09-26T10:49:18.337Z,6.40
2022-09-26T10:52:17.585Z,6.70
2022-09-26T10:54:54.701Z,6.10
2022-09-26T10:57:29.091Z,7.90
2022-09-26T11:00:00.454Z,7.10
2022-09-26T11:02:29.324Z,7.50
2022-09-26T11:05:18.388Z,7.10
2022-09-26T11:08:13.511Z,6.20
2022-09-26T11:10:55.310Z,5.70
2022-09-26T11:13:45.845Z,7.80
2022-09-26T11:16:18.553Z,5.60
2022-09-26T11:18:56.532Z,6.50
2022-09-26T11:21:33.046Z,5.80
2022-09-26T11:24:10.949Z,7.00
2022-09-26T11:26:49.003Z,7.20
2022-09-26T11:29:24.498Z,5.60
2022-09-26T11:32:23.598Z,8.00
2022-09-26T11:38:04.874Z,5.00
2022-09-26T11:41:06.828Z,6.70
2022-09-26T11:43:51.211Z,5.50
2022-09-26T11:46:49.681Z,6.30
2022-09-26T11:50:02.219Z,5.80
2022-09-26T11:52:58.867Z,11.10
2022-09-26T11:55:36.589Z,7.00
2022-09-26T11:58:16.650Z,5.10
2022-09-26T12:00:56.332Z,6.60
2022-09-26T12:03:45.010Z,6.10
2022-09-26T12:06:25.223Z,5.80
2022-09-26T12:09:11.577Z,5.50
2022-09-26T12:11:52.542Z,5.40
2022-09-26T12:14:38.354Z,5.60
2022-09-26T12:17:14.384Z,5.70
2022-09-26T12:19:51.719Z,5.70
2022-09-26T12:22:30.367Z,7.90
2022-09-26T12:25:16.638Z,5.60
2022-09-26T12:27:58.695Z,6.50
2022-09-26T12:30:35.170Z,5.80
2022-09-26T12:33:20.418Z,6.50
2022-09-26T12:35:58.309Z,6.00
2022-09-26T12:38:41.915Z,6.40
2022-09-26T12:41:50.088Z,7.70
2022-09-26T12:44:34.143Z,7.50
2022-09-26T12:47:15.014Z,7.50
2022-09-26T12:50:01.008Z,12.90
2022-09-26T12:52:51.088Z,9.20
2022-09-26T12:55:31.597Z,10.90
2022-09-26T12:58:11.247Z,10.60
2022-09-26T13:00:48.708Z,10.70
2022-09-26T13:03:35.842Z,11.00
2022-09-26T13:06:33.567Z,9.00
2022-09-26T13:09:15.291Z,7.40
2022-09-26T13:11:54.910Z,10.40
2022-09-26T13:14:48.147Z,11.10
2022-09-26T13:17:21.187Z,11.10
2022-09-26T13:19:55.437Z,11.90
2022-09-26T13:22:36.115Z,11.40
2022-09-26T13:25:18.270Z,10.50
2022-09-26T13:27:55.568Z,10.90
2022-09-26T13:30:28.169Z,12.60
2022-09-26T13:33:02.808Z,11.30
2022-09-26T13:35:35.237Z,10.90
2022-09-26T13:38:34.034Z,10.30
2022-09-26T13:41:14.972Z,11.20
2022-09-26T13:43:52.926Z,13.30
2022-09-26T13:46:30.611Z,9.60
2022-09-26T13:49:12.996Z,8.10
2022-09-26T13:51:51.080Z,13.00
2022-09-26T13:54:27.680Z,69.70
2022-09-26T13:57:00.093Z,91.60
2022-09-26T13:59:51.719Z,43.10
2022-09-26T14:02:24.037Z,48.60
2022-09-26T14:05:17.064Z,25.90
2022-09-26T14:08:12.593Z,29.00
2022-09-26T14:10:52.599Z,29.40
2022-09-26T14:13:33.936Z,64.60
2022-09-26T14:16:04.777Z,192.50
2022-09-26T14:18:51.582Z,60.70
2022-09-26T14:21:35.798Z,32.50
2022-09-26T14:24:33.110Z,17.10
2022-09-26T14:27:24.612Z,19.80
2022-09-26T14:29:58.390Z,17.30
2022-09-26T14:32:39.906Z,15.60
2022-09-26T14:35:20.800Z,17.10
2022-09-26T14:37:55.016Z,16.60
2022-09-26T14:40:31.487Z,17.70
2022-09-26T14:43:12.328Z,13.70
2022-09-26T14:45:51.529Z,14.50
2022-09-26T14:48:31.942Z,14.30
2022-09-26T14:51:04.234Z,12.30
2022-09-26T14:53:42.837Z,13.70
2022-09-26T14:56:15.731Z,12.80
2022-09-26T14:58:50.309Z,14.70
2022-09-26T15:01:28.132Z,12.80
2022-09-26T15:04:04.496Z,18.20
2022-09-26T15:06:41.999Z,16.80
2022-09-26T15:09:18.523Z,28.30
2022-09-26T15:11:51.982Z,62.30
2022-09-26T15:14:36.040Z,35.40
2022-09-26T15:17:06.574Z,52.20
2022-09-26T15:19:42.153Z,34.80
2022-09-26T15:22:16.270Z,24.20
2022-09-26T15:25:22.906Z,16.90
2022-09-26T15:27:53.740Z,16.30
2022-09-26T15:30:26.383Z,26.80
2022-09-26T15:32:57.840Z,26.10
2022-09-26T15:35:27.355Z,43.40
2022-09-26T15:38:00.068Z,16.30
2022-09-26T15:40:30.860Z,14.40
2022-09-26T15:43:09.051Z,14.00
2022-09-26T15:45:57.821Z,13.00
2022-09-26T15:48:29.079Z,13.40
2022-09-26T15:51:03.449Z,12.10
2022-09-26T15:53:36.790Z,11.10
2022-09-26T15:56:09.182Z,13.00
2022-09-26T15:58:43.740Z,13.30
2022-09-26T16:01:16.865Z,13.30
2022-09-26T16:03:56.592Z,14.50
2022-09-26T16:06:29.002Z,18.50
2022-09-26T16:09:06.760Z,16.50
2022-09-26T16:11:46.960Z,19.60
2022-09-26T16:14:26.059Z,15.40
2022-09-26T16:17:02.357Z,17.70
2022-09-26T16:19:34.598Z,16.20
2022-09-26T16:22:44.720Z,18.40
2022-09-26T16:25:33.821Z,18.60
2022-09-26T16:28:39.300Z,18.60
2022-09-26T16:31:22.581Z,16.30
2022-09-26T16:33:53.558Z,16.60
2022-09-26T16:36:23.940Z,24.40
2022-09-26T16:38:57.667Z,34.80
2022-09-26T16:41:59.960Z,39.40
2022-09-26T16:47:01.268Z,31.30
2022-09-26T16:49:41.579Z,32.10
2022-09-26T16:52:20.149Z,30.20
2022-09-26T16:54:50.849Z,20.50
2022-09-26T16:57:22.319Z,23.40
2022-09-26T16:59:52.333Z,20.90
2022-09-26T17:02:21.933Z,24.70
2022-09-26T17:04:53.531Z,24.30
2022-09-26T17:07:23.410Z,16.70
2022-09-26T17:09:51.972Z,22.40
2022-09-26T17:12:22.109Z,28.20
2022-09-26T17:14:52.588Z,26.20
2022-09-26T17:17:25.185Z,32.00
2022-09-26T17:19:59.172Z,30.50
2022-09-26T17:22:28.920Z,21.60
2022-09-26T17:24:58.740Z,16.50
2022-09-26T17:27:33.572Z,23.10
2022-09-26T17:30:04.266Z,23.90
2022-09-26T17:32:36.184Z,37.60
2022-09-26T17:35:12.820Z,54.50
2022-09-26T17:37:41.453Z,53.70
2022-09-26T17:40:16.513Z,68.00
2022-09-26T17:42:45.316Z,61.50
2022-09-26T17:45:14.192Z,40.60
2022-09-26T17:47:42.972Z,68.30
2022-09-26T17:50:19.300Z,78.70
2022-09-26T17:52:47.899Z,40.70
2022-09-26T17:55:18.205Z,82.50
2022-09-26T17:57:46.846Z,64.60
2022-09-26T18:00:18.838Z,86.90
2022-09-26T18:02:52.479Z,86.90
2022-09-26T18:05:25.123Z,110.60
2022-09-26T18:07:57.296Z,77.30
2022-09-26T18:13:03.292Z,48.30
2022-09-26T18:15:31.929Z,55.60
2022-09-26T18:18:01.708Z,22.40
2022-09-26T18:20:36.495Z,68.10
2022-09-26T18:23:06.784Z,60.90
2022-09-26T18:25:51.108Z,59.00
2022-09-26T18:28:22.779Z,40.50
2022-09-26T18:30:58.422Z,84.90
2022-09-26T18:33:28.337Z,69.80
2022-09-26T18:35:58.219Z,51.70
2022-09-26T18:38:30.359Z,86.60
2022-09-26T18:41:00.003Z,53.70
2022-09-26T18:43:31.192Z,169.30
2022-09-26T18:46:00.034Z,99.70
2022-09-26T18:48:33.257Z,85.00
2022-09-26T18:51:02.728Z,190.20
2022-09-26T18:53:36.460Z,123.90
2022-09-26T18:56:23.801Z,130.40
2022-09-26T18:58:53.466Z,140.90
2022-09-26T19:01:27.535Z,165.40
2022-09-26T19:04:00.410Z,201.80
2022-09-26T19:06:54.175Z,284.20
2022-09-26T19:09:24.393Z,160.80
2022-09-26T19:11:53.142Z,156.90
2022-09-26T19:14:24.629Z,92.50
2022-09-26T19:16:54.421Z,101.40
2022-09-26T19:19:23.624Z,52.00
2022-09-26T19:21:55.211Z,43.50
2022-09-26T19:24:32.144Z,52.70
2022-09-26T19:27:06.213Z,34.70
2022-09-26T19:29:39.977Z,29.70
2022-09-26T19:32:18.788Z,53.00
2022-09-26T19:34:51.117Z,29.20
2022-09-26T19:37:19.919Z,37.30
2022-09-26T19:39:48.691Z,36.20
2022-09-26T19:42:17.806Z,49.80
2022-09-26T19:44:54.084Z,28.90
2022-09-26T19:47:35.297Z,20.70
2022-09-26T19:50:18.079Z,25.70
2022-09-26T19:52:50.140Z,25.40
2022-09-26T19:55:26.818Z,34.40
2022-09-26T19:58:17.336Z,35.70
2022-09-26T20:00:49.154Z,51.40
2022-09-26T20:03:19.653Z,34.90
2022-09-26T20:05:52.324Z,38.70
2022-09-26T20:08:27.919Z,40.60
2022-09-26T20:10:58.592Z,29.00
2022-09-26T20:13:47.583Z,44.90
2022-09-26T20:16:16.404Z,45.60
2022-09-26T20:18:46.006Z,80.20
2022-09-26T20:21:17.205Z,69.40
2022-09-26T20:23:46.746Z,96.00
2022-09-26T20:26:16.632Z,87.50
2022-09-26T20:28:45.361Z,120.10
2022-09-26T20:31:22.051Z,78.90
2022-09-26T20:33:51.564Z,78.10
2022-09-26T20:36:24.690Z,74.90
2022-09-26T20:38:55.247Z,59.80
2022-09-26T20:41:28.829Z,107.20
2022-09-26T20:44:01.438Z,99.50
2022-09-26T20:46:33.374Z,57.20
2022-09-26T20:49:24.610Z,79.10
2022-09-26T20:51:53.262Z,63.50
2022-09-26T20:54:29.345Z,68.60
2022-09-26T20:56:58.758Z,59.80
2022-09-26T20:59:28.647Z,57.70
2022-09-26T21:01:59.082Z,37.90
2022-09-26T21:04:31.468Z,42.40
2022-09-26T21:07:00.071Z,53.90
2022-09-26T21:09:28.700Z,82.00
2022-09-26T21:11:57.337Z,53.10
2022-09-26T21:14:25.863Z,45.40
2022-09-26T21:16:55.111Z,54.40
2022-09-26T21:19:27.149Z,29.20
2022-09-26T21:22:02.899Z,28.90
2022-09-26T21:24:44.741Z,27.90
2022-09-26T21:27:13.776Z,26.00
2022-09-26T21:29:42.906Z,25.50
2022-09-26T21:32:16.725Z,53.80
2022-09-26T21:34:55.766Z,27.80
2022-09-26T21:37:30.675Z,33.90
2022-09-26T21:39:59.456Z,25.70
2022-09-26T21:42:28.067Z,27.00
2022-09-26T21:45:02.013Z,26.20
2022-09-26T21:47:30.925Z,24.50
2022-09-26T21:49:59.676Z,27.20
2022-09-26T21:52:35.118Z,23.00
2022-09-26T21:55:06.022Z,35.40
2022-09-26T21:57:38.012Z,30.90
2022-09-26T22:00:09.472Z,36.70
2022-09-26T22:02:42.153Z,43.50
2022-09-26T22:05:12.149Z,31.20
2022-09-26T22:07:40.655Z,36.50
2022-09-26T22:10:09.829Z,27.20
2022-09-26T22:12:38.331Z,26.60
2022-09-26T22:15:09.206Z,25.80
2022-09-26T22:17:37.820Z,26.70
2022-09-26T22:20:07.808Z,29.50
2022-09-26T22:22:37.105Z,26.50
2022-09-26T22:25:07.221Z,26.00
2022-09-26T22:27:35.971Z,26.90
2022-09-26T22:30:05.960Z,27.00
2022-09-26T22:32:34.757Z,28.20
2022-09-26T22:35:04.094Z,28.00
2022-09-26T22:37:33.172Z,24.90
2022-09-26T22:40:02.724Z,26.70
2022-09-26T22:42:31.732Z,31.80
2022-09-26T22:45:00.197Z,27.80
2022-09-26T22:47:28.877Z,27.80
2022-09-26T22:49:57.756Z,27.90
2022-09-26T22:52:26.358Z,26.50
2022-09-26T22:54:55.539Z,27.20
2022-09-26T22:57:24.139Z,26.60
2022-09-26T22:59:52.763Z,28.00
2022-09-26T23:02:21.323Z,21.70
2022-09-26T23:04:50.229Z,22.40
2022-09-26T23:07:19.934Z,18.50
2022-09-26T23:09:48.695Z,22.10
2022-09-26T23:12:18.351Z,21.90
2022-09-26T23:14:46.991Z,22.60
2022-09-26T23:17:16.150Z,35.50
2022-09-26T23:19:45.161Z,26.80
2022-09-26T23:22:14.711Z,25.20
2022-09-26T23:24:43.324Z,25.50
2022-09-26T23:27:11.926Z,20.50
2022-09-26T23:29:41.125Z,20.10
2022-09-26T23:32:09.693Z,23.40
2022-09-26T23:34:38.261Z,19.90
2022-09-26T23:37:06.834Z,17.30
2022-09-26T23:39:35.433Z,22.90
2022-09-26T23:42:04.702Z,23.20
2022-09-26T23:44:34.312Z,25.00
2022-09-26T23:47:03.643Z,30.60
2022-09-26T23:49:32.241Z,30.10
2022-09-26T23:52:01.619Z,29.00
2022-09-26T23:54:30.498Z,31.00
2022-09-26T23:56:59.907Z,29.70
2022-09-26T23:59:28.585Z,31.70
